sensor_id;sensor_type;location;lat;lon;timestamp;temperature;humidity
74873;HTU21D;68776;44.762;37.698;2023-06-14T00:00:47;21.05;78.31
74873;HTU21D;68776;44.762;37.698;2023-06-14T00:01:49;21.06;78.30
74873;HTU21D;68776;44.762;37.698;2023-06-14T00:02:50;21.07;78.28
74873;HTU21D;68776;44.762;37.698;2023-06-14T00:03:51;21.06;78.30
74873;HTU21D;68776;44.762;37.698;2023-06-14T00:04:52;21.06;78.28
74873;HTU21D;68776;44.762;37.698;2023-06-14T00:05:53;21.06;78.28
74873;HTU21D;68776;44.762;37.698;2023-06-14T00:06:55;21.06;78.30
74873;HTU21D;68776;44.762;37.698;2023-06-14T00:07:57;21.04;78.32
74873;HTU21D;68776;44.762;37.698;2023-06-14T00:09:01;0.00;78.27
74873;HTU21D;68776;44.762;37.698;2023-06-14T00:10:03;21.05;78.27
74873;HTU21D;68776;44.762;37.698;2023-06-14T00:11:05;21.06;78.29
74873;HTU21D;68776;44.762;37.698;2023-06-14T00:12:06;21.05;78.31
74873;HTU21D;68776;44.762;37.698;2023-06-14T00:13:09;21.04;78.33
74873;HTU21D;68776;44.762;37.698;2023-06-14T00:14:10;21.04;78.36
74873;HTU21D;68776;44.762;37.698;2023-06-14T00:15:11;21.03;78.37
74873;HTU21D;68776;44.762;37.698;2023-06-14T00:16:12;21.02;78.38
74873;HTU21D;68776;44.762;37.698;2023-06-14T00:17:13;21.00;78.42
74873;HTU21D;68776;44.762;37.698;2023-06-14T00:18:17;21.01;78.40
74873;HTU21D;68776;44.762;37.698;2023-06-14T00:19:18;20.99;78.40
74873;HTU21D;68776;44.762;37.698;2023-06-14T00:20:20;20.99;78.40
74873;HTU21D;68776;44.762;37.698;2023-06-14T00:21:22;20.99;78.41
74873;HTU21D;68776;44.762;37.698;2023-06-14T00:22:23;20.98;78.43
74873;HTU21D;68776;44.762;37.698;2023-06-14T00:23:29;20.95;78.47
74873;HTU21D;68776;44.762;37.698;2023-06-14T00:24:30;20.93;78.50
74873;HTU21D;68776;44.762;37.698;2023-06-14T00:25:31;20.92;78.53
74873;HTU21D;68776;44.762;37.698;2023-06-14T00:26:32;20.91;78.59
74873;HTU21D;68776;44.762;37.698;2023-06-14T00:27:33;20.89;78.63
74873;HTU21D;68776;44.762;37.698;2023-06-14T00:28:34;20.88;78.64
74873;HTU21D;68776;44.762;37.698;2023-06-14T00:29:35;20.88;78.65
74873;HTU21D;68776;44.762;37.698;2023-06-14T00:30:38;20.87;78.64
74873;HTU21D;68776;44.762;37.698;2023-06-14T00:31:39;20.87;78.66
74873;HTU21D;68776;44.762;37.698;2023-06-14T00:32:40;20.86;78.69
74873;HTU21D;68776;44.762;37.698;2023-06-14T00:33:43;20.87;78.66
74873;HTU21D;68776;44.762;37.698;2023-06-14T00:34:46;20.89;78.57
74873;HTU21D;68776;44.762;37.698;2023-06-14T00:35:47;20.88;78.58
74873;HTU21D;68776;44.762;37.698;2023-06-14T00:36:48;20.87;78.60
74873;HTU21D;68776;44.762;37.698;2023-06-14T00:37:49;20.87;78.60
74873;HTU21D;68776;44.762;37.698;2023-06-14T00:38:50;20.86;78.63
74873;HTU21D;68776;44.762;37.698;2023-06-14T00:39:51;20.87;78.63
74873;HTU21D;68776;44.762;37.698;2023-06-14T00:40:53;20.84;78.66
74873;HTU21D;68776;44.762;37.698;2023-06-14T00:41:54;20.83;78.69
74873;HTU21D;68776;44.762;37.698;2023-06-14T00:42:55;20.84;78.67
74873;HTU21D;68776;44.762;37.698;2023-06-14T00:43:56;20.84;78.66
74873;HTU21D;68776;44.762;37.698;2023-06-14T00:44:57;20.83;78.67
74873;HTU21D;68776;44.762;37.698;2023-06-14T00:45:58;20.83;78.65
74873;HTU21D;68776;44.762;37.698;2023-06-14T00:46:59;20.81;78.67
74873;HTU21D;68776;44.762;37.698;2023-06-14T00:48:02;20.79;78.73
74873;HTU21D;68776;44.762;37.698;2023-06-14T00:49:04;20.75;78.82
74873;HTU21D;68776;44.762;37.698;2023-06-14T00:50:09;20.72;78.89
74873;HTU21D;68776;44.762;37.698;2023-06-14T00:51:10;20.73;78.89
74873;HTU21D;68776;44.762;37.698;2023-06-14T00:52:12;20.72;78.88
74873;HTU21D;68776;44.762;37.698;2023-06-14T00:53:16;20.72;78.89
74873;HTU21D;68776;44.762;37.698;2023-06-14T00:54:21;20.72;78.83
74873;HTU21D;68776;44.762;37.698;2023-06-14T00:55:22;20.72;78.83
74873;HTU21D;68776;44.762;37.698;2023-06-14T00:56:23;20.71;78.88
74873;HTU21D;68776;44.762;37.698;2023-06-14T00:57:25;20.70;78.93
74873;HTU21D;68776;44.762;37.698;2023-06-14T00:58:27;20.69;78.93
74873;HTU21D;68776;44.762;37.698;2023-06-14T00:59:28;20.69;78.97
74873;HTU21D;68776;44.762;37.698;2023-06-14T01:00:30;20.68;78.99
74873;HTU21D;68776;44.762;37.698;2023-06-14T01:01:31;20.66;79.01
74873;HTU21D;68776;44.762;37.698;2023-06-14T01:02:38;20.65;79.02
74873;HTU21D;68776;44.762;37.698;2023-06-14T01:03:39;20.69;78.98
74873;HTU21D;68776;44.762;37.698;2023-06-14T01:04:45;20.70;78.95
74873;HTU21D;68776;44.762;37.698;2023-06-14T01:05:56;20.68;78.98
74873;HTU21D;68776;44.762;37.698;2023-06-14T01:08:34;20.62;79.15
74873;HTU21D;68776;44.762;37.698;2023-06-14T01:11:11;20.65;79.07
74873;HTU21D;68776;44.762;37.698;2023-06-14T01:12:39;20.64;79.09
74873;HTU21D;68776;44.762;37.698;2023-06-14T01:13:46;20.64;79.08
74873;HTU21D;68776;44.762;37.698;2023-06-14T01:14:48;20.64;79.05
74873;HTU21D;68776;44.762;37.698;2023-06-14T01:15:50;20.65;79.01
74873;HTU21D;68776;44.762;37.698;2023-06-14T01:16:52;20.68;78.93
74873;HTU21D;68776;44.762;37.698;2023-06-14T01:17:55;20.72;78.84
74873;HTU21D;68776;44.762;37.698;2023-06-14T01:19:03;20.72;78.79
74873;HTU21D;68776;44.762;37.698;2023-06-14T01:20:07;20.73;78.73
74873;HTU21D;68776;44.762;37.698;2023-06-14T01:21:25;20.76;78.66
74873;HTU21D;68776;44.762;37.698;2023-06-14T01:22:26;20.77;78.66
74873;HTU21D;68776;44.762;37.698;2023-06-14T01:23:29;20.78;78.63
74873;HTU21D;68776;44.762;37.698;2023-06-14T01:24:33;20.79;78.58
74873;HTU21D;68776;44.762;37.698;2023-06-14T01:25:35;20.78;78.59
74873;HTU21D;68776;44.762;37.698;2023-06-14T01:26:38;20.80;78.56
74873;HTU21D;68776;44.762;37.698;2023-06-14T01:27:48;20.81;78.54
74873;HTU21D;68776;44.762;37.698;2023-06-14T01:28:50;20.84;78.54
74873;HTU21D;68776;44.762;37.698;2023-06-14T01:29:54;20.84;78.51
74873;HTU21D;68776;44.762;37.698;2023-06-14T01:30:58;20.85;78.50
74873;HTU21D;68776;44.762;37.698;2023-06-14T01:32:04;20.84;78.49
74873;HTU21D;68776;44.762;37.698;2023-06-14T01:33:05;20.85;78.45
74873;HTU21D;68776;44.762;37.698;2023-06-14T01:34:07;20.84;78.45
74873;HTU21D;68776;44.762;37.698;2023-06-14T01:35:09;20.84;78.45
74873;HTU21D;68776;44.762;37.698;2023-06-14T01:36:10;20.84;78.46
74873;HTU21D;68776;44.762;37.698;2023-06-14T01:37:12;20.83;78.46
74873;HTU21D;68776;44.762;37.698;2023-06-14T01:38:15;20.84;78.49
74873;HTU21D;68776;44.762;37.698;2023-06-14T01:39:18;20.81;78.49
74873;HTU21D;68776;44.762;37.698;2023-06-14T01:40:19;20.84;78.50
74873;HTU21D;68776;44.762;37.698;2023-06-14T01:41:22;20.81;78.53
74873;HTU21D;68776;44.762;37.698;2023-06-14T01:42:23;20.83;78.55
74873;HTU21D;68776;44.762;37.698;2023-06-14T01:43:26;20.84;78.57
74873;HTU21D;68776;44.762;37.698;2023-06-14T01:44:28;20.84;78.61
74873;HTU21D;68776;44.762;37.698;2023-06-14T01:45:30;20.84;78.61
74873;HTU21D;68776;44.762;37.698;2023-06-14T01:46:32;20.87;78.58
74873;HTU21D;68776;44.762;37.698;2023-06-14T01:47:34;20.86;78.56
74873;HTU21D;68776;44.762;37.698;2023-06-14T01:48:36;20.87;78.56
74873;HTU21D;68776;44.762;37.698;2023-06-14T01:49:38;20.88;78.56
74873;HTU21D;68776;44.762;37.698;2023-06-14T01:50:40;20.87;78.56
74873;HTU21D;68776;44.762;37.698;2023-06-14T01:51:41;20.89;78.56
74873;HTU21D;68776;44.762;37.698;2023-06-14T01:52:44;20.88;78.55
74873;HTU21D;68776;44.762;37.698;2023-06-14T01:53:45;20.89;78.52
74873;HTU21D;68776;44.762;37.698;2023-06-14T01:54:47;20.90;78.50
74873;HTU21D;68776;44.762;37.698;2023-06-14T01:55:48;20.90;78.47
74873;HTU21D;68776;44.762;37.698;2023-06-14T01:56:49;20.89;78.45
74873;HTU21D;68776;44.762;37.698;2023-06-14T01:57:51;20.89;78.44
74873;HTU21D;68776;44.762;37.698;2023-06-14T01:58:52;20.90;78.40
74873;HTU21D;68776;44.762;37.698;2023-06-14T01:59:54;20.89;78.40
74873;HTU21D;68776;44.762;37.698;2023-06-14T02:00:55;20.88;78.40
74873;HTU21D;68776;44.762;37.698;2023-06-14T02:01:57;20.88;78.43
74873;HTU21D;68776;44.762;37.698;2023-06-14T02:02:58;20.88;78.45
74873;HTU21D;68776;44.762;37.698;2023-06-14T02:04:00;20.87;78.47
74873;HTU21D;68776;44.762;37.698;2023-06-14T02:05:01;20.88;78.49
74873;HTU21D;68776;44.762;37.698;2023-06-14T02:06:03;20.86;78.52
74873;HTU21D;68776;44.762;37.698;2023-06-14T02:07:04;20.88;78.53
74873;HTU21D;68776;44.762;37.698;2023-06-14T02:08:06;20.89;78.53
74873;HTU21D;68776;44.762;37.698;2023-06-14T02:09:07;20.89;78.54
74873;HTU21D;68776;44.762;37.698;2023-06-14T02:10:08;20.90;78.53
74873;HTU21D;68776;44.762;37.698;2023-06-14T02:11:09;20.89;78.52
74873;HTU21D;68776;44.762;37.698;2023-06-14T02:12:10;20.87;78.57
74873;HTU21D;68776;44.762;37.698;2023-06-14T02:13:11;20.84;78.66
74873;HTU21D;68776;44.762;37.698;2023-06-14T02:14:13;20.79;78.77
74873;HTU21D;68776;44.762;37.698;2023-06-14T02:15:15;20.74;78.92
74873;HTU21D;68776;44.762;37.698;2023-06-14T02:16:20;20.71;79.02
74873;HTU21D;68776;44.762;37.698;2023-06-14T02:17:22;20.70;79.08
74873;HTU21D;68776;44.762;37.698;2023-06-14T02:18:23;20.70;79.09
74873;HTU21D;68776;44.762;37.698;2023-06-14T02:19:24;20.70;79.07
74873;HTU21D;68776;44.762;37.698;2023-06-14T02:20:25;20.69;79.06
74873;HTU21D;68776;44.762;37.698;2023-06-14T02:21:26;20.70;79.08
74873;HTU21D;68776;44.762;37.698;2023-06-14T02:22:27;20.69;79.08
74873;HTU21D;68776;44.762;37.698;2023-06-14T02:23:28;20.65;79.09
74873;HTU21D;68776;44.762;37.698;2023-06-14T02:24:29;20.65;79.08
74873;HTU21D;68776;44.762;37.698;2023-06-14T02:25:30;20.65;79.06
74873;HTU21D;68776;44.762;37.698;2023-06-14T02:26:31;20.66;79.05
74873;HTU21D;68776;44.762;37.698;2023-06-14T02:27:34;20.68;79.03
74873;HTU21D;68776;44.762;37.698;2023-06-14T02:28:35;20.68;79.01
74873;HTU21D;68776;44.762;37.698;2023-06-14T02:29:36;20.69;78.98
74873;HTU21D;68776;44.762;37.698;2023-06-14T02:30:38;20.69;78.95
74873;HTU21D;68776;44.762;37.698;2023-06-14T02:31:40;20.69;78.95
74873;HTU21D;68776;44.762;37.698;2023-06-14T02:32:41;20.69;78.97
74873;HTU21D;68776;44.762;37.698;2023-06-14T02:33:43;20.70;78.95
74873;HTU21D;68776;44.762;37.698;2023-06-14T02:34:44;20.69;78.91
74873;HTU21D;68776;44.762;37.698;2023-06-14T02:35:45;20.69;78.92
74873;HTU21D;68776;44.762;37.698;2023-06-14T02:36:47;20.70;78.90
74873;HTU21D;68776;44.762;37.698;2023-06-14T02:37:48;20.69;78.89
74873;HTU21D;68776;44.762;37.698;2023-06-14T02:38:49;20.69;78.88
74873;HTU21D;68776;44.762;37.698;2023-06-14T02:39:50;20.69;78.88
74873;HTU21D;68776;44.762;37.698;2023-06-14T02:40:51;20.68;78.88
74873;HTU21D;68776;44.762;37.698;2023-06-14T02:41:52;20.70;78.89
74873;HTU21D;68776;44.762;37.698;2023-06-14T02:42:53;20.69;78.90
74873;HTU21D;68776;44.762;37.698;2023-06-14T02:43:54;20.69;78.91
74873;HTU21D;68776;44.762;37.698;2023-06-14T02:44:56;20.69;78.91
74873;HTU21D;68776;44.762;37.698;2023-06-14T02:45:57;20.70;78.91
74873;HTU21D;68776;44.762;37.698;2023-06-14T02:46:58;20.70;78.92
74873;HTU21D;68776;44.762;37.698;2023-06-14T02:48:01;20.69;78.90
74873;HTU21D;68776;44.762;37.698;2023-06-14T02:49:02;20.68;78.92
74873;HTU21D;68776;44.762;37.698;2023-06-14T02:50:03;20.66;78.92
74873;HTU21D;68776;44.762;37.698;2023-06-14T02:51:04;20.66;78.94
74873;HTU21D;68776;44.762;37.698;2023-06-14T02:52:06;20.65;78.98
74873;HTU21D;68776;44.762;37.698;2023-06-14T02:53:09;20.66;78.98
74873;HTU21D;68776;44.762;37.698;2023-06-14T02:54:11;20.69;78.96
74873;HTU21D;68776;44.762;37.698;2023-06-14T02:55:13;20.70;78.92
74873;HTU21D;68776;44.762;37.698;2023-06-14T02:56:14;20.70;78.92
74873;HTU21D;68776;44.762;37.698;2023-06-14T02:57:18;20.72;78.88
74873;HTU21D;68776;44.762;37.698;2023-06-14T02:58:19;20.73;78.85
74873;HTU21D;68776;44.762;37.698;2023-06-14T02:59:20;20.76;78.79
74873;HTU21D;68776;44.762;37.698;2023-06-14T03:00:22;20.78;78.75
74873;HTU21D;68776;44.762;37.698;2023-06-14T03:01:27;20.80;78.72
74873;HTU21D;68776;44.762;37.698;2023-06-14T03:02:35;20.81;78.67
74873;HTU21D;68776;44.762;37.698;2023-06-14T03:03:36;20.86;78.66
74873;HTU21D;68776;44.762;37.698;2023-06-14T03:04:38;20.87;78.63
74873;HTU21D;68776;44.762;37.698;2023-06-14T03:05:45;20.90;78.55
74873;HTU21D;68776;44.762;37.698;2023-06-14T03:06:48;20.90;78.52
74873;HTU21D;68776;44.762;37.698;2023-06-14T03:07:53;20.94;78.48
74873;HTU21D;68776;44.762;37.698;2023-06-14T03:08:56;20.95;78.46
74873;HTU21D;68776;44.762;37.698;2023-06-14T03:09:58;20.98;78.43
74873;HTU21D;68776;44.762;37.698;2023-06-14T03:10:59;20.99;78.43
74873;HTU21D;68776;44.762;37.698;2023-06-14T03:12:04;21.02;78.41
74873;HTU21D;68776;44.762;37.698;2023-06-14T03:13:08;21.02;78.37
74873;HTU21D;68776;44.762;37.698;2023-06-14T03:14:09;21.03;78.30
74873;HTU21D;68776;44.762;37.698;2023-06-14T03:15:11;21.04;78.24
74873;HTU21D;68776;44.762;37.698;2023-06-14T03:16:16;21.06;78.24
74873;HTU21D;68776;44.762;37.698;2023-06-14T03:17:20;21.06;78.26
74873;HTU21D;68776;44.762;37.698;2023-06-14T03:18:21;21.04;78.37
74873;HTU21D;68776;44.762;37.698;2023-06-14T03:19:25;21.06;78.42
74873;HTU21D;68776;44.762;37.698;2023-06-14T03:20:28;21.05;78.38
74873;HTU21D;68776;44.762;37.698;2023-06-14T03:21:30;21.07;78.39
74873;HTU21D;68776;44.762;37.698;2023-06-14T03:22:34;21.07;78.34
74873;HTU21D;68776;44.762;37.698;2023-06-14T03:23:35;21.08;78.32
74873;HTU21D;68776;44.762;37.698;2023-06-14T03:24:38;21.08;78.30
74873;HTU21D;68776;44.762;37.698;2023-06-14T03:25:44;21.09;78.30
74873;HTU21D;68776;44.762;37.698;2023-06-14T03:26:47;21.13;78.27
74873;HTU21D;68776;44.762;37.698;2023-06-14T03:27:49;21.18;78.21
74873;HTU21D;68776;44.762;37.698;2023-06-14T03:28:50;21.24;78.10
74873;HTU21D;68776;44.762;37.698;2023-06-14T03:29:52;21.32;77.95
74873;HTU21D;68776;44.762;37.698;2023-06-14T03:30:54;21.38;77.75
74873;HTU21D;68776;44.762;37.698;2023-06-14T03:32:00;21.43;77.53
74873;HTU21D;68776;44.762;37.698;2023-06-14T03:33:08;21.47;77.40
74873;HTU21D;68776;44.762;37.698;2023-06-14T03:34:12;21.50;77.31
74873;HTU21D;68776;44.762;37.698;2023-06-14T03:35:14;21.52;77.31
74873;HTU21D;68776;44.762;37.698;2023-06-14T03:36:19;21.54;77.31
74873;HTU21D;68776;44.762;37.698;2023-06-14T03:37:20;21.59;77.21
74873;HTU21D;68776;44.762;37.698;2023-06-14T03:38:22;21.62;77.00
74873;HTU21D;68776;44.762;37.698;2023-06-14T03:39:23;21.67;76.92
74873;HTU21D;68776;44.762;37.698;2023-06-14T03:40:24;21.68;76.96
74873;HTU21D;68776;44.762;37.698;2023-06-14T03:41:34;21.68;77.11
74873;HTU21D;68776;44.762;37.698;2023-06-14T03:42:35;21.70;77.14
74873;HTU21D;68776;44.762;37.698;2023-06-14T03:43:36;21.72;77.11
74873;HTU21D;68776;44.762;37.698;2023-06-14T03:44:37;21.74;77.05
74873;HTU21D;68776;44.762;37.698;2023-06-14T03:45:39;21.76;77.01
74873;HTU21D;68776;44.762;37.698;2023-06-14T03:46:41;21.78;76.98
74873;HTU21D;68776;44.762;37.698;2023-06-14T03:47:42;21.79;76.91
74873;HTU21D;68776;44.762;37.698;2023-06-14T03:48:43;21.80;76.96
74873;HTU21D;68776;44.762;37.698;2023-06-14T03:49:44;21.84;76.93
74873;HTU21D;68776;44.762;37.698;2023-06-14T03:50:45;21.87;76.86
74873;HTU21D;68776;44.762;37.698;2023-06-14T03:51:47;21.90;76.78
74873;HTU21D;68776;44.762;37.698;2023-06-14T03:52:53;21.91;76.70
74873;HTU21D;68776;44.762;37.698;2023-06-14T03:53:54;21.92;76.63
74873;HTU21D;68776;44.762;37.698;2023-06-14T03:54:56;21.95;76.55
74873;HTU21D;68776;44.762;37.698;2023-06-14T03:55:58;22.01;76.48
74873;HTU21D;68776;44.762;37.698;2023-06-14T03:57:07;22.04;76.30
74873;HTU21D;68776;44.762;37.698;2023-06-14T03:58:09;22.07;76.16
74873;HTU21D;68776;44.762;37.698;2023-06-14T03:59:11;22.09;76.07
74873;HTU21D;68776;44.762;37.698;2023-06-14T04:00:13;22.10;76.07
74873;HTU21D;68776;44.762;37.698;2023-06-14T04:01:17;22.12;76.09
74873;HTU21D;68776;44.762;37.698;2023-06-14T04:02:18;22.12;76.04
74873;HTU21D;68776;44.762;37.698;2023-06-14T04:03:20;22.16;76.01
74873;HTU21D;68776;44.762;37.698;2023-06-14T04:04:24;22.18;75.99
74873;HTU21D;68776;44.762;37.698;2023-06-14T04:05:30;22.19;75.86
74873;HTU21D;68776;44.762;37.698;2023-06-14T04:06:32;22.23;75.77
74873;HTU21D;68776;44.762;37.698;2023-06-14T04:07:34;22.24;75.78
74873;HTU21D;68776;44.762;37.698;2023-06-14T04:08:40;22.29;75.76
74873;HTU21D;68776;44.762;37.698;2023-06-14T04:09:42;22.34;75.74
74873;HTU21D;68776;44.762;37.698;2023-06-14T04:10:43;22.34;75.75
74873;HTU21D;68776;44.762;37.698;2023-06-14T04:11:44;22.38;75.70
74873;HTU21D;68776;44.762;37.698;2023-06-14T04:12:45;22.38;75.70
74873;HTU21D;68776;44.762;37.698;2023-06-14T04:13:46;22.43;75.63
74873;HTU21D;68776;44.762;37.698;2023-06-14T04:14:47;22.50;75.41
74873;HTU21D;68776;44.762;37.698;2023-06-14T04:15:48;22.55;75.35
74873;HTU21D;68776;44.762;37.698;2023-06-14T04:16:55;22.58;75.31
74873;HTU21D;68776;44.762;37.698;2023-06-14T04:17:56;22.61;75.36
74873;HTU21D;68776;44.762;37.698;2023-06-14T04:18:58;22.65;75.34
74873;HTU21D;68776;44.762;37.698;2023-06-14T04:20:00;22.65;75.35
74873;HTU21D;68776;44.762;37.698;2023-06-14T04:21:01;22.65;75.41
74873;HTU21D;68776;44.762;37.698;2023-06-14T04:22:03;22.65;75.44
74873;HTU21D;68776;44.762;37.698;2023-06-14T04:23:15;22.69;75.36
74873;HTU21D;68776;44.762;37.698;2023-06-14T04:24:19;22.69;75.44
74873;HTU21D;68776;44.762;37.698;2023-06-14T04:25:22;22.70;75.48
74873;HTU21D;68776;44.762;37.698;2023-06-14T04:26:24;22.72;75.44
74873;HTU21D;68776;44.762;37.698;2023-06-14T04:27:30;22.75;75.25
74873;HTU21D;68776;44.762;37.698;2023-06-14T04:28:36;22.78;75.14
74873;HTU21D;68776;44.762;37.698;2023-06-14T04:29:41;22.79;75.18
74873;HTU21D;68776;44.762;37.698;2023-06-14T04:30:46;22.79;75.23
74873;HTU21D;68776;44.762;37.698;2023-06-14T04:31:49;22.79;75.27
74873;HTU21D;68776;44.762;37.698;2023-06-14T04:32:52;22.80;75.24
74873;HTU21D;68776;44.762;37.698;2023-06-14T04:33:55;22.82;75.21
74873;HTU21D;68776;44.762;37.698;2023-06-14T04:34:57;22.83;75.23
74873;HTU21D;68776;44.762;37.698;2023-06-14T04:36:00;22.87;75.17
74873;HTU21D;68776;44.762;37.698;2023-06-14T04:37:01;22.92;75.05
74873;HTU21D;68776;44.762;37.698;2023-06-14T04:38:06;22.97;74.99
74873;HTU21D;68776;44.762;37.698;2023-06-14T04:39:10;23.01;74.99
74873;HTU21D;68776;44.762;37.698;2023-06-14T04:40:11;23.03;74.95
74873;HTU21D;68776;44.762;37.698;2023-06-14T04:41:14;23.06;74.95
74873;HTU21D;68776;44.762;37.698;2023-06-14T04:42:17;23.09;74.90
74873;HTU21D;68776;44.762;37.698;2023-06-14T04:43:21;23.12;74.89
74873;HTU21D;68776;44.762;37.698;2023-06-14T04:44:30;23.16;74.83
74873;HTU21D;68776;44.762;37.698;2023-06-14T04:45:34;23.22;74.74
74873;HTU21D;68776;44.762;37.698;2023-06-14T04:46:38;23.28;74.56
74873;HTU21D;68776;44.762;37.698;2023-06-14T04:47:48;23.32;74.46
74873;HTU21D;68776;44.762;37.698;2023-06-14T04:48:51;23.37;74.44
74873;HTU21D;68776;44.762;37.698;2023-06-14T04:49:52;23.40;74.39
74873;HTU21D;68776;44.762;37.698;2023-06-14T04:50:55;23.45;74.26
74873;HTU21D;68776;44.762;37.698;2023-06-14T04:51:57;23.51;74.16
74873;HTU21D;68776;44.762;37.698;2023-06-14T04:53:02;23.54;74.15
74873;HTU21D;68776;44.762;37.698;2023-06-14T04:54:04;23.57;74.16
74873;HTU21D;68776;44.762;37.698;2023-06-14T04:55:06;23.60;74.22
74873;HTU21D;68776;44.762;37.698;2023-06-14T04:56:07;23.68;74.11
74873;HTU21D;68776;44.762;37.698;2023-06-14T04:57:10;23.82;73.75
74873;HTU21D;68776;44.762;37.698;2023-06-14T04:58:18;23.95;73.40
74873;HTU21D;68776;44.762;37.698;2023-06-14T04:59:19;24.02;73.16
74873;HTU21D;68776;44.762;37.698;2023-06-14T05:00:20;24.13;72.90
74873;HTU21D;68776;44.762;37.698;2023-06-14T05:01:22;24.20;72.80
74873;HTU21D;68776;44.762;37.698;2023-06-14T05:02:24;24.32;72.58
74873;HTU21D;68776;44.762;37.698;2023-06-14T05:03:26;24.43;72.40
74873;HTU21D;68776;44.762;37.698;2023-06-14T05:04:28;24.49;72.13
74873;HTU21D;68776;44.762;37.698;2023-06-14T05:05:31;24.49;72.17
74873;HTU21D;68776;44.762;37.698;2023-06-14T05:06:34;24.54;72.07
74873;HTU21D;68776;44.762;37.698;2023-06-14T05:07:35;24.61;71.93
74873;HTU21D;68776;44.762;37.698;2023-06-14T05:08:36;24.69;71.80
74873;HTU21D;68776;44.762;37.698;2023-06-14T05:09:37;24.75;71.62
74873;HTU21D;68776;44.762;37.698;2023-06-14T05:10:38;24.77;71.56
74873;HTU21D;68776;44.762;37.698;2023-06-14T05:11:39;24.78;71.54
74873;HTU21D;68776;44.762;37.698;2023-06-14T05:12:42;24.80;71.45
74873;HTU21D;68776;44.762;37.698;2023-06-14T05:13:45;24.88;71.34
74873;HTU21D;68776;44.762;37.698;2023-06-14T05:14:47;24.94;71.24
74873;HTU21D;68776;44.762;37.698;2023-06-14T05:15:51;24.94;71.21
74873;HTU21D;68776;44.762;37.698;2023-06-14T05:16:52;24.95;71.26
74873;HTU21D;68776;44.762;37.698;2023-06-14T05:17:54;25.05;71.06
74873;HTU21D;68776;44.762;37.698;2023-06-14T05:18:55;25.15;70.81
74873;HTU21D;68776;44.762;37.698;2023-06-14T05:19:57;25.17;70.67
74873;HTU21D;68776;44.762;37.698;2023-06-14T05:20:58;25.18;70.51
74873;HTU21D;68776;44.762;37.698;2023-06-14T05:21:59;25.17;70.32
74873;HTU21D;68776;44.762;37.698;2023-06-14T05:23:00;25.13;70.32
74873;HTU21D;68776;44.762;37.698;2023-06-14T05:24:01;25.08;70.31
74873;HTU21D;68776;44.762;37.698;2023-06-14T05:25:02;25.06;70.23
74873;HTU21D;68776;44.762;37.698;2023-06-14T05:26:03;25.06;70.10
74873;HTU21D;68776;44.762;37.698;2023-06-14T05:27:05;25.06;70.11
74873;HTU21D;68776;44.762;37.698;2023-06-14T05:28:06;25.04;70.13
74873;HTU21D;68776;44.762;37.698;2023-06-14T05:29:07;25.01;70.08
74873;HTU21D;68776;44.762;37.698;2023-06-14T05:30:08;25.02;70.03
74873;HTU21D;68776;44.762;37.698;2023-06-14T05:31:10;25.02;70.01
74873;HTU21D;68776;44.762;37.698;2023-06-14T05:32:11;25.02;70.03
74873;HTU21D;68776;44.762;37.698;2023-06-14T05:33:12;25.01;70.06
74873;HTU21D;68776;44.762;37.698;2023-06-14T05:34:13;25.03;70.02
74873;HTU21D;68776;44.762;37.698;2023-06-14T05:35:14;24.99;70.06
74873;HTU21D;68776;44.762;37.698;2023-06-14T05:36:15;25.00;69.99
74873;HTU21D;68776;44.762;37.698;2023-06-14T05:37:16;24.94;70.00
74873;HTU21D;68776;44.762;37.698;2023-06-14T05:38:18;24.93;70.00
74873;HTU21D;68776;44.762;37.698;2023-06-14T05:39:18;24.83;70.19
74873;HTU21D;68776;44.762;37.698;2023-06-14T05:40:20;24.73;70.45
74873;HTU21D;68776;44.762;37.698;2023-06-14T05:41:21;24.71;70.61
74873;HTU21D;68776;44.762;37.698;2023-06-14T05:42:22;24.71;70.58
74873;HTU21D;68776;44.762;37.698;2023-06-14T05:43:23;24.75;70.54
74873;HTU21D;68776;44.762;37.698;2023-06-14T05:44:24;24.86;70.35
74873;HTU21D;68776;44.762;37.698;2023-06-14T05:45:25;25.02;70.02
74873;HTU21D;68776;44.762;37.698;2023-06-14T05:46:26;25.16;69.71
74873;HTU21D;68776;44.762;37.698;2023-06-14T05:47:27;25.25;69.46
74873;HTU21D;68776;44.762;37.698;2023-06-14T05:48:29;25.30;69.29
74873;HTU21D;68776;44.762;37.698;2023-06-14T05:49:31;25.37;69.11
74873;HTU21D;68776;44.762;37.698;2023-06-14T05:50:31;25.51;68.83
74873;HTU21D;68776;44.762;37.698;2023-06-14T05:51:33;25.64;68.52
74873;HTU21D;68776;44.762;37.698;2023-06-14T05:52:34;25.76;68.26
74873;HTU21D;68776;44.762;37.698;2023-06-14T05:53:37;25.90;67.84
74873;HTU21D;68776;44.762;37.698;2023-06-14T05:54:38;26.03;67.59
74873;HTU21D;68776;44.762;37.698;2023-06-14T05:55:39;26.15;67.35
74873;HTU21D;68776;44.762;37.698;2023-06-14T05:56:41;26.19;67.36
74873;HTU21D;68776;44.762;37.698;2023-06-14T05:57:42;26.19;67.50
74873;HTU21D;68776;44.762;37.698;2023-06-14T05:58:43;26.09;67.57
74873;HTU21D;68776;44.762;37.698;2023-06-14T05:59:44;25.98;67.77
74873;HTU21D;68776;44.762;37.698;2023-06-14T06:00:45;25.82;67.97
74873;HTU21D;68776;44.762;37.698;2023-06-14T06:01:47;25.67;68.29
74873;HTU21D;68776;44.762;37.698;2023-06-14T06:02:49;25.59;68.46
74873;HTU21D;68776;44.762;37.698;2023-06-14T06:03:50;25.50;68.59
74873;HTU21D;68776;44.762;37.698;2023-06-14T06:04:51;25.42;68.76
74873;HTU21D;68776;44.762;37.698;2023-06-14T06:05:52;25.37;68.83
74873;HTU21D;68776;44.762;37.698;2023-06-14T06:06:52;25.30;68.93
74873;HTU21D;68776;44.762;37.698;2023-06-14T06:07:54;25.28;68.93
74873;HTU21D;68776;44.762;37.698;2023-06-14T06:08:55;25.25;68.89
74873;HTU21D;68776;44.762;37.698;2023-06-14T06:09:56;25.23;68.84
74873;HTU21D;68776;44.762;37.698;2023-06-14T06:10:57;25.16;68.85
74873;HTU21D;68776;44.762;37.698;2023-06-14T06:11:58;25.06;68.97
74873;HTU21D;68776;44.762;37.698;2023-06-14T06:12:59;25.02;69.07
74873;HTU21D;68776;44.762;37.698;2023-06-14T06:14:00;25.08;68.91
74873;HTU21D;68776;44.762;37.698;2023-06-14T06:15:01;25.27;68.46
74873;HTU21D;68776;44.762;37.698;2023-06-14T06:16:03;25.44;67.96
74873;HTU21D;68776;44.762;37.698;2023-06-14T06:17:04;25.61;67.56
74873;HTU21D;68776;44.762;37.698;2023-06-14T06:18:05;25.79;67.08
74873;HTU21D;68776;44.762;37.698;2023-06-14T06:19:07;25.93;66.69
74873;HTU21D;68776;44.762;37.698;2023-06-14T06:20:08;26.05;66.48
74873;HTU21D;68776;44.762;37.698;2023-06-14T06:21:10;26.18;66.11
74873;HTU21D;68776;44.762;37.698;2023-06-14T06:22:11;26.26;65.72
74873;HTU21D;68776;44.762;37.698;2023-06-14T06:23:12;26.42;65.37
74873;HTU21D;68776;44.762;37.698;2023-06-14T06:24:13;26.56;64.99
74873;HTU21D;68776;44.762;37.698;2023-06-14T06:25:14;26.68;64.70